sensor_id;sensor_type;location;lat;lon;timestamp;P1;durP1;ratioP1;P2;durP2;ratioP2
29416;SDS011;28421;51.030;4.006;2022-07-03T00:01:22;2.05;;;1.45;;
29416;SDS011;28421;51.030;4.006;2022-07-03T00:03:48;6.85;;;1.50;;
29416;SDS011;28421;51.030;4.006;2022-07-03T00:06:13;2.25;;;1.25;;
29416;SDS011;28421;51.030;4.006;2022-07-03T00:08:39;2.33;;;1.88;;
29416;SDS011;28421;51.030;4.006;2022-07-03T00:11:05;1.55;;;1.30;;
29416;SDS011;28421;51.030;4.006;2022-07-03T00:13:32;2.13;;;1.50;;
29416;SDS011;28421;51.030;4.006;2022-07-03T00:15:57;5.20;;;1.27;;
29416;SDS011;28421;51.030;4.006;2022-07-03T00:18:23;2.28;;;1.30;;
29416;SDS011;28421;51.030;4.006;2022-07-03T00:20:49;3.90;;;1.63;;
29416;SDS011;28421;51.030;4.006;2022-07-03T00:23:24;4.15;;;1.17;;
29416;SDS011;28421;51.030;4.006;2022-07-03T00:25:53;7.72;;;1.60;;
29416;SDS011;28421;51.030;4.006;2022-07-03T00:28:20;3.15;;;1.52;;
29416;SDS011;28421;51.030;4.006;2022-07-03T00:30:48;1.77;;;1.30;;
29416;SDS011;28421;51.030;4.006;2022-07-03T00:33:16;5.10;;;1.70;;
29416;SDS011;28421;51.030;4.006;2022-07-03T00:35:43;2.92;;;1.73;;
29416;SDS011;28421;51.030;4.006;2022-07-03T00:38:10;3.30;;;1.30;;
29416;SDS011;28421;51.030;4.006;2022-07-03T00:40:37;2.53;;;1.58;;
29416;SDS011;28421;51.030;4.006;2022-07-03T00:43:03;1.83;;;1.20;;
29416;SDS011;28421;51.030;4.006;2022-07-03T00:45:31;3.15;;;1.08;;
29416;SDS011;28421;51.030;4.006;2022-07-03T00:47:59;1.27;;;1.10;;
29416;SDS011;28421;51.030;4.006;2022-07-03T00:50:26;3.60;;;1.23;;
29416;SDS011;28421;51.030;4.006;2022-07-03T00:52:59;1.40;;;1.30;;
29416;SDS011;28421;51.030;4.006;2022-07-03T00:55:27;5.40;;;1.08;;
29416;SDS011;28421;51.030;4.006;2022-07-03T00:57:55;0.57;;;0.57;;
29416;SDS011;28421;51.030;4.006;2022-07-03T01:00:21;1.13;;;1.02;;
29416;SDS011;28421;51.030;4.006;2022-07-03T01:03:00;4.32;;;1.00;;
29416;SDS011;28421;51.030;4.006;2022-07-03T01:05:36;1.00;;;0.70;;
29416;SDS011;28421;51.030;4.006;2022-07-03T01:11:08;1.52;;;0.75;;
29416;SDS011;28421;51.030;4.006;2022-07-03T01:16:40;1.25;;;0.88;;
29416;SDS011;28421;51.030;4.006;2022-07-03T01:25:02;1.10;;;0.95;;
29416;SDS011;28421;51.030;4.006;2022-07-03T01:27:35;0.70;;;0.70;;
29416;SDS011;28421;51.030;4.006;2022-07-03T01:30:15;1.85;;;0.63;;
29416;SDS011;28421;51.030;4.006;2022-07-03T01:32:44;4.28;;;0.85;;
29416;SDS011;28421;51.030;4.006;2022-07-03T01:35:11;0.75;;;0.75;;
29416;SDS011;28421;51.030;4.006;2022-07-03T01:37:40;2.90;;;0.95;;
29416;SDS011;28421;51.030;4.006;2022-07-03T01:40:06;2.47;;;0.65;;
29416;SDS011;28421;51.030;4.006;2022-07-03T01:42:33;4.55;;;1.05;;
29416;SDS011;28421;51.030;4.006;2022-07-03T01:45:02;2.03;;;0.98;;
29416;SDS011;28421;51.030;4.006;2022-07-03T01:47:30;4.13;;;0.70;;
29416;SDS011;28421;51.030;4.006;2022-07-03T01:49:59;2.38;;;0.70;;
29416;SDS011;28421;51.030;4.006;2022-07-03T01:52:26;0.60;;;0.60;;
29416;SDS011;28421;51.030;4.006;2022-07-03T01:54:56;2.05;;;1.00;;
29416;SDS011;28421;51.030;4.006;2022-07-03T01:57:27;1.55;;;0.73;;
29416;SDS011;28421;51.030;4.006;2022-07-03T02:00:06;4.13;;;1.30;;
29416;SDS011;28421;51.030;4.006;2022-07-03T02:02:39;1.15;;;0.95;;
29416;SDS011;28421;51.030;4.006;2022-07-03T02:05:09;0.82;;;0.82;;
29416;SDS011;28421;51.030;4.006;2022-07-03T02:10:47;4.20;;;1.48;;
29416;SDS011;28421;51.030;4.006;2022-07-03T02:13:55;1.05;;;0.88;;
29416;SDS011;28421;51.030;4.006;2022-07-03T02:16:24;1.45;;;1.23;;
29416;SDS011;28421;51.030;4.006;2022-07-03T02:19:00;3.40;;;0.90;;
29416;SDS011;28421;51.030;4.006;2022-07-03T02:21:29;2.97;;;1.13;;
29416;SDS011;28421;51.030;4.006;2022-07-03T02:26:40;1.55;;;0.65;;
29416;SDS011;28421;51.030;4.006;2022-07-03T02:29:09;5.40;;;0.80;;
29416;SDS011;28421;51.030;4.006;2022-07-03T02:31:46;4.50;;;0.90;;
29416;SDS011;28421;51.030;4.006;2022-07-03T02:34:29;1.40;;;1.02;;
29416;SDS011;28421;51.030;4.006;2022-07-03T02:36:57;1.10;;;0.65;;
29416;SDS011;28421;51.030;4.006;2022-07-03T02:39:50;1.75;;;1.00;;
29416;SDS011;28421;51.030;4.006;2022-07-03T02:42:32;0.90;;;0.90;;
29416;SDS011;28421;51.030;4.006;2022-07-03T02:45:01;1.83;;;1.00;;
29416;SDS011;28421;51.030;4.006;2022-07-03T02:50:20;0.98;;;0.98;;
29416;SDS011;28421;51.030;4.006;2022-07-03T02:53:07;2.38;;;0.77;;
29416;SDS011;28421;51.030;4.006;2022-07-03T02:55:39;1.25;;;1.02;;
29416;SDS011;28421;51.030;4.006;2022-07-03T03:01:11;3.78;;;1.50;;
29416;SDS011;28421;51.030;4.006;2022-07-03T03:03:42;4.40;;;1.67;;
29416;SDS011;28421;51.030;4.006;2022-07-03T03:06:15;1.05;;;1.00;;
29416;SDS011;28421;51.030;4.006;2022-07-03T03:08:49;2.08;;;1.08;;
29416;SDS011;28421;51.030;4.006;2022-07-03T03:11:24;2.45;;;1.27;;
29416;SDS011;28421;51.030;4.006;2022-07-03T03:13:56;1.65;;;1.55;;
29416;SDS011;28421;51.030;4.006;2022-07-03T03:16:22;3.08;;;1.48;;
29416;SDS011;28421;51.030;4.006;2022-07-03T03:18:48;5.47;;;1.65;;
29416;SDS011;28421;51.030;4.006;2022-07-03T03:21:16;4.10;;;1.42;;
29416;SDS011;28421;51.030;4.006;2022-07-03T03:28:47;2.72;;;1.10;;
29416;SDS011;28421;51.030;4.006;2022-07-03T03:31:14;2.08;;;1.23;;
29416;SDS011;28421;51.030;4.006;2022-07-03T03:33:40;3.22;;;1.67;;
29416;SDS011;28421;51.030;4.006;2022-07-03T03:36:11;2.95;;;1.40;;
29416;SDS011;28421;51.030;4.006;2022-07-03T03:38:43;4.90;;;1.45;;
29416;SDS011;28421;51.030;4.006;2022-07-03T03:41:09;1.60;;;1.30;;
29416;SDS011;28421;51.030;4.006;2022-07-03T03:43:35;2.90;;;1.30;;
29416;SDS011;28421;51.030;4.006;2022-07-03T03:46:03;1.08;;;1.08;;
29416;SDS011;28421;51.030;4.006;2022-07-03T03:48:32;5.28;;;1.30;;
29416;SDS011;28421;51.030;4.006;2022-07-03T03:50:59;2.17;;;1.40;;
29416;SDS011;28421;51.030;4.006;2022-07-03T03:53:26;1.25;;;1.23;;
29416;SDS011;28421;51.030;4.006;2022-07-03T03:56:03;2.22;;;1.38;;
29416;SDS011;28421;51.030;4.006;2022-07-03T03:58:32;1.90;;;1.30;;
29416;SDS011;28421;51.030;4.006;2022-07-03T04:01:00;5.63;;;1.50;;
29416;SDS011;28421;51.030;4.006;2022-07-03T04:03:27;3.15;;;1.30;;
29416;SDS011;28421;51.030;4.006;2022-07-03T04:05:54;2.00;;;1.20;;
29416;SDS011;28421;51.030;4.006;2022-07-03T04:08:21;4.07;;;1.20;;
29416;SDS011;28421;51.030;4.006;2022-07-03T04:10:48;1.35;;;1.25;;
29416;SDS011;28421;51.030;4.006;2022-07-03T04:13:15;3.30;;;1.50;;
29416;SDS011;28421;51.030;4.006;2022-07-03T04:15:41;1.45;;;1.35;;
29416;SDS011;28421;51.030;4.006;2022-07-03T04:18:07;1.88;;;1.08;;
29416;SDS011;28421;51.030;4.006;2022-07-03T04:20:33;1.00;;;0.80;;
29416;SDS011;28421;51.030;4.006;2022-07-03T04:22:59;1.67;;;1.20;;
29416;SDS011;28421;51.030;4.006;2022-07-03T04:25:25;3.42;;;1.63;;
29416;SDS011;28421;51.030;4.006;2022-07-03T04:27:51;1.20;;;1.10;;
29416;SDS011;28421;51.030;4.006;2022-07-03T04:30:17;4.10;;;1.80;;
29416;SDS011;28421;51.030;4.006;2022-07-03T04:32:43;1.83;;;1.52;;
29416;SDS011;28421;51.030;4.006;2022-07-03T04:35:10;3.65;;;1.40;;
29416;SDS011;28421;51.030;4.006;2022-07-03T04:37:36;2.92;;;1.58;;
29416;SDS011;28421;51.030;4.006;2022-07-03T04:40:02;4.15;;;1.73;;
29416;SDS011;28421;51.030;4.006;2022-07-03T04:42:28;1.05;;;1.05;;
29416;SDS011;28421;51.030;4.006;2022-07-03T04:44:54;11.60;;;2.05;;
29416;SDS011;28421;51.030;4.006;2022-07-03T04:47:20;3.58;;;1.88;;
29416;SDS011;28421;51.030;4.006;2022-07-03T04:49:46;2.33;;;1.73;;
29416;SDS011;28421;51.030;4.006;2022-07-03T04:52:12;3.72;;;1.55;;
29416;SDS011;28421;51.030;4.006;2022-07-03T04:54:38;1.92;;;1.50;;
29416;SDS011;28421;51.030;4.006;2022-07-03T04:57:04;4.05;;;1.80;;
29416;SDS011;28421;51.030;4.006;2022-07-03T04:59:30;5.68;;;1.80;;
29416;SDS011;28421;51.030;4.006;2022-07-03T05:01:55;6.47;;;2.55;;
29416;SDS011;28421;51.030;4.006;2022-07-03T05:04:21;4.35;;;1.88;;
29416;SDS011;28421;51.030;4.006;2022-07-03T05:06:46;5.70;;;3.00;;
29416;SDS011;28421;51.030;4.006;2022-07-03T05:09:12;4.82;;;2.30;;
29416;SDS011;28421;51.030;4.006;2022-07-03T05:11:38;6.07;;;2.30;;
29416;SDS011;28421;51.030;4.006;2022-07-03T05:14:05;4.05;;;3.13;;
29416;SDS011;28421;51.030;4.006;2022-07-03T05:16:30;4.97;;;2.30;;
29416;SDS011;28421;51.030;4.006;2022-07-03T05:18:56;2.90;;;2.28;;
29416;SDS011;28421;51.030;4.006;2022-07-03T05:21:22;4.40;;;3.10;;
29416;SDS011;28421;51.030;4.006;2022-07-03T05:23:48;3.05;;;2.45;;
29416;SDS011;28421;51.030;4.006;2022-07-03T05:26:14;5.60;;;2.70;;
29416;SDS011;28421;51.030;4.006;2022-07-03T05:28:40;3.17;;;2.13;;
29416;SDS011;28421;51.030;4.006;2022-07-03T05:31:06;6.35;;;2.97;;
29416;SDS011;28421;51.030;4.006;2022-07-03T05:33:32;6.85;;;2.92;;
29416;SDS011;28421;51.030;4.006;2022-07-03T05:35:58;4.38;;;3.17;;
29416;SDS011;28421;51.030;4.006;2022-07-03T05:38:24;4.80;;;2.55;;
29416;SDS011;28421;51.030;4.006;2022-07-03T05:41:09;4.30;;;3.40;;
29416;SDS011;28421;51.030;4.006;2022-07-03T05:43:35;8.23;;;2.72;;
29416;SDS011;28421;51.030;4.006;2022-07-03T05:46:01;5.57;;;2.85;;
29416;SDS011;28421;51.030;4.006;2022-07-03T05:48:28;8.15;;;3.10;;
29416;SDS011;28421;51.030;4.006;2022-07-03T05:50:54;3.92;;;3.10;;
29416;SDS011;28421;51.030;4.006;2022-07-03T05:53:21;5.95;;;3.03;;
29416;SDS011;28421;51.030;4.006;2022-07-03T05:55:46;10.88;;;3.55;;
29416;SDS011;28421;51.030;4.006;2022-07-03T05:58:12;8.85;;;3.05;;
29416;SDS011;28421;51.030;4.006;2022-07-03T06:00:38;8.60;;;3.70;;
29416;SDS011;28421;51.030;4.006;2022-07-03T06:03:04;4.32;;;2.58;;
29416;SDS011;28421;51.030;4.006;2022-07-03T06:05:30;4.93;;;3.03;;
29416;SDS011;28421;51.030;4.006;2022-07-03T06:07:57;2.70;;;2.25;;
29416;SDS011;28421;51.030;4.006;2022-07-03T06:10:24;5.30;;;2.40;;
29416;SDS011;28421;51.030;4.006;2022-07-03T06:12:50;7.72;;;2.58;;
29416;SDS011;28421;51.030;4.006;2022-07-03T06:15:15;8.68;;;2.92;;
29416;SDS011;28421;51.030;4.006;2022-07-03T06:17:41;7.25;;;2.83;;
29416;SDS011;28421;51.030;4.006;2022-07-03T06:20:09;6.13;;;2.55;;
29416;SDS011;28421;51.030;4.006;2022-07-03T06:22:36;10.88;;;3.00;;
29416;SDS011;28421;51.030;4.006;2022-07-03T06:25:03;2.78;;;1.88;;
29416;SDS011;28421;51.030;4.006;2022-07-03T06:27:28;6.10;;;3.42;;
29416;SDS011;28421;51.030;4.006;2022-07-03T06:29:55;3.85;;;2.50;;
29416;SDS011;28421;51.030;4.006;2022-07-03T06:32:21;8.63;;;2.50;;
29416;SDS011;28421;51.030;4.006;2022-07-03T06:34:47;4.60;;;2.40;;
29416;SDS011;28421;51.030;4.006;2022-07-03T06:37:13;4.13;;;2.40;;
29416;SDS011;28421;51.030;4.006;2022-07-03T06:39:39;5.43;;;2.90;;
29416;SDS011;28421;51.030;4.006;2022-07-03T06:42:04;10.63;;;3.72;;
29416;SDS011;28421;51.030;4.006;2022-07-03T06:44:30;13.15;;;2.90;;
29416;SDS011;28421;51.030;4.006;2022-07-03T06:46:57;3.53;;;2.25;;
29416;SDS011;28421;51.030;4.006;2022-07-03T06:49:23;4.82;;;2.30;;
29416;SDS011;28421;51.030;4.006;2022-07-03T06:51:49;5.10;;;2.53;;
29416;SDS011;28421;51.030;4.006;2022-07-03T06:54:15;6.18;;;2.42;;
29416;SDS011;28421;51.030;4.006;2022-07-03T06:56:41;7.03;;;2.63;;
29416;SDS011;28421;51.030;4.006;2022-07-03T06:59:09;3.50;;;2.28;;
29416;SDS011;28421;51.030;4.006;2022-07-03T07:01:35;4.57;;;2.55;;
29416;SDS011;28421;51.030;4.006;2022-07-03T07:04:01;6.45;;;2.90;;
29416;SDS011;28421;51.030;4.006;2022-07-03T07:06:27;4.45;;;2.58;;
29416;SDS011;28421;51.030;4.006;2022-07-03T07:08:53;6.40;;;3.10;;
29416;SDS011;28421;51.030;4.006;2022-07-03T07:11:19;7.57;;;2.65;;
29416;SDS011;28421;51.030;4.006;2022-07-03T07:13:45;6.85;;;2.60;;
29416;SDS011;28421;51.030;4.006;2022-07-03T07:16:11;7.07;;;2.75;;
29416;SDS011;28421;51.030;4.006;2022-07-03T07:18:37;5.88;;;2.90;;
29416;SDS011;28421;51.030;4.006;2022-07-03T07:21:05;3.72;;;2.20;;
29416;SDS011;28421;51.030;4.006;2022-07-03T07:23:31;6.20;;;2.80;;
29416;SDS011;28421;51.030;4.006;2022-07-03T07:25:56;8.77;;;3.20;;
29416;SDS011;28421;51.030;4.006;2022-07-03T07:28:22;3.97;;;2.30;;
29416;SDS011;28421;51.030;4.006;2022-07-03T07:30:48;6.18;;;2.33;;
29416;SDS011;28421;51.030;4.006;2022-07-03T07:33:14;4.40;;;1.98;;
29416;SDS011;28421;51.030;4.006;2022-07-03T07:35:39;3.72;;;1.50;;
29416;SDS011;28421;51.030;4.006;2022-07-03T07:38:05;4.00;;;1.83;;
29416;SDS011;28421;51.030;4.006;2022-07-03T07:40:31;3.83;;;2.33;;
29416;SDS011;28421;51.030;4.006;2022-07-03T07:42:56;2.67;;;1.98;;
29416;SDS011;28421;51.030;4.006;2022-07-03T07:45:22;9.00;;;2.58;;
29416;SDS011;28421;51.030;4.006;2022-07-03T07:47:48;2.30;;;1.45;;
29416;SDS011;28421;51.030;4.006;2022-07-03T07:50:13;2.13;;;1.55;;
29416;SDS011;28421;51.030;4.006;2022-07-03T07:52:39;3.53;;;1.48;;
29416;SDS011;28421;51.030;4.006;2022-07-03T07:55:05;9.85;;;1.52;;
29416;SDS011;28421;51.030;4.006;2022-07-03T07:57:35;2.03;;;1.05;;
29416;SDS011;28421;51.030;4.006;2022-07-03T08:00:08;2.97;;;1.77;;
29416;SDS011;28421;51.030;4.006;2022-07-03T08:02:37;1.50;;;1.30;;
29416;SDS011;28421;51.030;4.006;2022-07-03T08:05:22;1.85;;;1.27;;
29416;SDS011;28421;51.030;4.006;2022-07-03T08:08:02;3.13;;;1.40;;
29416;SDS011;28421;51.030;4.006;2022-07-03T08:10:36;1.27;;;1.15;;
29416;SDS011;28421;51.030;4.006;2022-07-03T08:13:03;5.07;;;1.70;;
29416;SDS011;28421;51.030;4.006;2022-07-03T08:15:29;1.35;;;1.20;;
29416;SDS011;28421;51.030;4.006;2022-07-03T08:17:55;2.35;;;1.42;;
29416;SDS011;28421;51.030;4.006;2022-07-03T08:20:20;0.95;;;0.90;;
29416;SDS011;28421;51.030;4.006;2022-07-03T08:22:46;3.22;;;1.45;;
29416;SDS011;28421;51.030;4.006;2022-07-03T08:25:12;1.55;;;1.17;;
29416;SDS011;28421;51.030;4.006;2022-07-03T08:27:37;5.63;;;1.10;;
29416;SDS011;28421;51.030;4.006;2022-07-03T08:30:03;5.60;;;1.35;;
29416;SDS011;28421;51.030;4.006;2022-07-03T08:32:30;1.45;;;1.00;;
29416;SDS011;28421;51.030;4.006;2022-07-03T08:34:55;3.05;;;1.05;;
29416;SDS011;28421;51.030;4.006;2022-07-03T08:37:21;2.30;;;0.88;;
29416;SDS011;28421;51.030;4.006;2022-07-03T08:39:46;2.05;;;0.90;;
29416;SDS011;28421;51.030;4.006;2022-07-03T08:42:13;2.30;;;1.52;;
29416;SDS011;28421;51.030;4.006;2022-07-03T08:44:40;6.63;;;0.90;;
29416;SDS011;28421;51.030;4.006;2022-07-03T08:47:08;4.38;;;1.20;;
29416;SDS011;28421;51.030;4.006;2022-07-03T08:49:37;4.65;;;1.75;;
29416;SDS011;28421;51.030;4.006;2022-07-03T08:52:03;3.63;;;1.02;;
29416;SDS011;28421;51.030;4.006;2022-07-03T08:54:32;1.20;;;0.73;;
29416;SDS011;28421;51.030;4.006;2022-07-03T08:57:02;2.08;;;0.90;;
29416;SDS011;28421;51.030;4.006;2022-07-03T08:59:49;0.60;;;0.60;;
29416;SDS011;28421;51.030;4.006;2022-07-03T09:02:17;4.03;;;0.75;;
29416;SDS011;28421;51.030;4.006;2022-07-03T09:04:44;1.55;;;1.00;;
29416;SDS011;28421;51.030;4.006;2022-07-03T09:07:10;1.80;;;0.90;;
29416;SDS011;28421;51.030;4.006;2022-07-03T09:09:38;1.05;;;0.63;;
29416;SDS011;28421;51.030;4.006;2022-07-03T09:12:05;1.08;;;0.98;;
29416;SDS011;28421;51.030;4.006;2022-07-03T09:14:31;1.75;;;0.50;;
29416;SDS011;28421;51.030;4.006;2022-07-03T09:16:57;0.73;;;0.70;;
29416;SDS011;28421;51.030;4.006;2022-07-03T09:19:43;1.88;;;0.70;;
29416;SDS011;28421;51.030;4.006;2022-07-03T09:22:20;1.98;;;0.80;;
29416;SDS011;28421;51.030;4.006;2022-07-03T09:24:48;2.58;;;0.80;;
29416;SDS011;28421;51.030;4.006;2022-07-03T09:27:16;6.32;;;0.82;;
29416;SDS011;28421;51.030;4.006;2022-07-03T09:29:59;1.30;;;0.43;;
29416;SDS011;28421;51.030;4.006;2022-07-03T09:32:40;2.22;;;0.60;;
29416;SDS011;28421;51.030;4.006;2022-07-03T09:35:17;1.80;;;0.55;;
29416;SDS011;28421;51.030;4.006;2022-07-03T09:40:14;2.28;;;0.70;;
29416;SDS011;28421;51.030;4.006;2022-07-03T09:42:39;0.43;;;0.38;;
29416;SDS011;28421;51.030;4.006;2022-07-03T09:45:06;0.98;;;0.60;;
29416;SDS011;28421;51.030;4.006;2022-07-03T09:47:32;3.30;;;0.63;;
29416;SDS011;28421;51.030;4.006;2022-07-03T09:50:02;0.82;;;0.73;;
29416;SDS011;28421;51.030;4.006;2022-07-03T09:57:34;3.75;;;0.90;;
29416;SDS011;28421;51.030;4.006;2022-07-03T10:00:34;1.77;;;0.50;;
29416;SDS011;28421;51.030;4.006;2022-07-03T10:03:06;1.73;;;0.80;;
29416;SDS011;28421;51.030;4.006;2022-07-03T10:05:40;0.95;;;0.57;;
29416;SDS011;28421;51.030;4.006;2022-07-03T10:08:08;2.13;;;0.75;;
29416;SDS011;28421;51.030;4.006;2022-07-03T10:10:40;1.58;;;0.77;;
29416;SDS011;28421;51.030;4.006;2022-07-03T10:13:07;1.05;;;0.75;;
29416;SDS011;28421;51.030;4.006;2022-07-03T10:15:33;0.93;;;0.77;;
29416;SDS011;28421;51.030;4.006;2022-07-03T10:18:04;1.52;;;0.70;;
29416;SDS011;28421;51.030;4.006;2022-07-03T10:20:35;0.50;;;0.50;;
29416;SDS011;28421;51.030;4.006;2022-07-03T10:23:05;1.10;;;0.77;;
29416;SDS011;28421;51.030;4.006;2022-07-03T10:25:32;2.92;;;0.88;;
29416;SDS011;28421;51.030;4.006;2022-07-03T10:27:58;5.03;;;0.90;;
29416;SDS011;28421;51.030;4.006;2022-07-03T10:30:26;1.80;;;0.73;;
29416;SDS011;28421;51.030;4.006;2022-07-03T10:32:52;0.75;;;0.75;;
29416;SDS011;28421;51.030;4.006;2022-07-03T10:35:32;2.20;;;1.45;;
29416;SDS011;28421;51.030;4.006;2022-07-03T10:43:27;2.58;;;0.60;;
29416;SDS011;28421;51.030;4.006;2022-07-03T10:46:14;1.13;;;0.65;;
29416;SDS011;28421;51.030;4.006;2022-07-03T10:51:21;2.80;;;1.00;;
29416;SDS011;28421;51.030;4.006;2022-07-03T10:53:47;2.67;;;0.70;;
29416;SDS011;28421;51.030;4.006;2022-07-03T10:56:13;8.45;;;1.13;;
29416;SDS011;28421;51.030;4.006;2022-07-03T10:58:55;4.88;;;1.05;;
29416;SDS011;28421;51.030;4.006;2022-07-03T11:01:25;3.05;;;1.48;;
29416;SDS011;28421;51.030;4.006;2022-07-03T11:03:57;5.72;;;1.10;;
29416;SDS011;28421;51.030;4.006;2022-07-03T11:09:12;2.83;;;0.77;;
29416;SDS011;28421;51.030;4.006;2022-07-03T11:11:43;1.10;;;0.90;;
29416;SDS011;28421;51.030;4.006;2022-07-03T11:14:25;3.40;;;0.98;;
29416;SDS011;28421;51.030;4.006;2022-07-03T11:19:44;1.48;;;0.60;;
29416;SDS011;28421;51.030;4.006;2022-07-03T11:22:44;5.93;;;0.70;;
29416;SDS011;28421;51.030;4.006;2022-07-03T11:25:17;3.58;;;0.77;;
29416;SDS011;28421;51.030;4.006;2022-07-03T11:27:42;3.13;;;0.85;;
29416;SDS011;28421;51.030;4.006;2022-07-03T11:30:09;8.20;;;0.93;;
29416;SDS011;28421;51.030;4.006;2022-07-03T11:38:18;1.88;;;0.98;;
29416;SDS011;28421;51.030;4.006;2022-07-03T11:40:47;1.33;;;0.60;;
29416;SDS011;28421;51.030;4.006;2022-07-03T11:43:15;1.75;;;0.50;;
29416;SDS011;28421;51.030;4.006;2022-07-03T11:45:41;2.08;;;0.60;;
29416;SDS011;28421;51.030;4.006;2022-07-03T11:48:18;1.52;;;0.63;;
29416;SDS011;28421;51.030;4.006;2022-07-03T11:50:45;1.33;;;0.38;;
29416;SDS011;28421;51.030;4.006;2022-07-03T11:53:19;4.50;;;0.75;;
29416;SDS011;28421;51.030;4.006;2022-07-03T11:58:19;3.90;;;0.70;;
29416;SDS011;28421;51.030;4.006;2022-07-03T12:00:45;0.43;;;0.43;;
29416;SDS011;28421;51.030;4.006;2022-07-03T12:03:15;3.42;;;0.50;;
29416;SDS011;28421;51.030;4.006;2022-07-03T12:05:49;0.35;;;0.35;;
29416;SDS011;28421;51.030;4.006;2022-07-03T12:08:21;0.90;;;0.32;;
29416;SDS011;28421;51.030;4.006;2022-07-03T12:10:55;1.13;;;0.40;;
29416;SDS011;28421;51.030;4.006;2022-07-03T12:13:22;1.13;;;0.40;;
29416;SDS011;28421;51.030;4.006;2022-07-03T12:15:50;0.52;;;0.43;;
29416;SDS011;28421;51.030;4.006;2022-07-03T12:18:16;2.28;;;0.57;;
29416;SDS011;28421;51.030;4.006;2022-07-03T12:20:41;0.32;;;0.30;;
29416;SDS011;28421;51.030;4.006;2022-07-03T12:23:08;0.47;;;0.38;;
29416;SDS011;28421;51.030;4.006;2022-07-03T12:25:38;3.03;;;0.85;;
29416;SDS011;28421;51.030;4.006;2022-07-03T12:28:05;1.95;;;0.55;;
29416;SDS011;28421;51.030;4.006;2022-07-03T12:30:31;1.38;;;0.43;;
29416;SDS011;28421;51.030;4.006;2022-07-03T12:32:57;3.17;;;0.73;;
29416;SDS011;28421;51.030;4.006;2022-07-03T12:35:24;0.32;;;0.32;;
29416;SDS011;28421;51.030;4.006;2022-07-03T12:37:50;5.47;;;0.77;;
29416;SDS011;28421;51.030;4.006;2022-07-03T12:40:16;0.50;;;0.50;;
29416;SDS011;28421;51.030;4.006;2022-07-03T12:42:53;1.08;;;0.90;;
29416;SDS011;28421;51.030;4.006;2022-07-03T12:45:20;3.92;;;0.40;;
29416;SDS011;28421;51.030;4.006;2022-07-03T12:48:04;2.33;;;0.32;;
29416;SDS011;28421;51.030;4.006;2022-07-03T12:50:47;5.32;;;0.35;;
29416;SDS011;28421;51.030;4.006;2022-07-03T12:53:25;1.40;;;0.40;;
29416;SDS011;28421;51.030;4.006;2022-07-03T12:55:52;1.10;;;0.38;;
29416;SDS011;28421;51.030;4.006;2022-07-03T12:58:22;1.27;;;0.57;;
29416;SDS011;28421;51.030;4.006;2022-07-03T13:01:07;1.35;;;0.50;;
29416;SDS011;28421;51.030;4.006;2022-07-03T13:03:49;0.45;;;0.45;;
29416;SDS011;28421;51.030;4.006;2022-07-03T13:06:15;1.08;;;0.30;;
29416;SDS011;28421;51.030;4.006;2022-07-03T13:08:54;0.45;;;0.40;;
29416;SDS011;28421;51.030;4.006;2022-07-03T13:11:25;4.63;;;1.55;;
29416;SDS011;28421;51.030;4.006;2022-07-03T13:14:15;1.20;;;0.43;;
29416;SDS011;28421;51.030;4.006;2022-07-03T13:19:11;0.32;;;0.32;;
29416;SDS011;28421;51.030;4.006;2022-07-03T13:21:38;0.35;;;0.30;;
29416;SDS011;28421;51.030;4.006;2022-07-03T13:24:05;0.20;;;0.20;;
29416;SDS011;28421;51.030;4.006;2022-07-03T13:26:32;3.50;;;0.75;;
29416;SDS011;28421;51.030;4.006;2022-07-03T13:28:58;0.45;;;0.20;;
29416;SDS011;28421;51.030;4.006;2022-07-03T13:31:23;1.88;;;0.43;;
29416;SDS011;28421;51.030;4.006;2022-07-03T13:33:50;2.70;;;0.55;;
29416;SDS011;28421;51.030;4.006;2022-07-03T13:36:15;1.17;;;0.35;;
29416;SDS011;28421;51.030;4.006;2022-07-03T13:38:42;1.13;;;0.65;;
29416;SDS011;28421;51.030;4.006;2022-07-03T13:41:09;0.55;;;0.20;;
29416;SDS011;28421;51.030;4.006;2022-07-03T13:43:35;0.75;;;0.60;;
29416;SDS011;28421;51.030;4.006;2022-07-03T13:46:01;3.17;;;0.82;;
29416;SDS011;28421;51.030;4.006;2022-07-03T13:48:28;4.57;;;0.47;;
29416;SDS011;28421;51.030;4.006;2022-07-03T13:50:54;0.20;;;0.20;;
29416;SDS011;28421;51.030;4.006;2022-07-03T13:53:19;1.58;;;0.40;;
29416;SDS011;28421;51.030;4.006;2022-07-03T13:55:45;1.27;;;0.50;;
29416;SDS011;28421;51.030;4.006;2022-07-03T13:58:11;2.88;;;0.73;;
29416;SDS011;28421;51.030;4.006;2022-07-03T14:00:37;0.40;;;0.30;;
29416;SDS011;28421;51.030;4.006;2022-07-03T14:03:03;4.38;;;0.60;;
29416;SDS011;28421;51.030;4.006;2022-07-03T14:05:29;1.58;;;0.20;;
29416;SDS011;28421;51.030;4.006;2022-07-03T14:07:55;0.75;;;0.20;;
29416;SDS011;28421;51.030;4.006;2022-07-03T14:10:21;3.67;;;0.43;;
29416;SDS011;28421;51.030;4.006;2022-07-03T14:12:50;1.00;;;0.30;;
29416;SDS011;28421;51.030;4.006;2022-07-03T14:15:16;0.50;;;0.50;;
29416;SDS011;28421;51.030;4.006;2022-07-03T14:17:42;0.70;;;0.60;;
29416;SDS011;28421;51.030;4.006;2022-07-03T14:20:08;1.30;;;0.45;;
29416;SDS011;28421;51.030;4.006;2022-07-03T14:22:35;1.33;;;0.50;;
29416;SDS011;28421;51.030;4.006;2022-07-03T14:25:01;0.35;;;0.35;;
29416;SDS011;28421;51.030;4.006;2022-07-03T14:27:28;0.70;;;0.57;;
29416;SDS011;28421;51.030;4.006;2022-07-03T14:30:12;1.38;;;0.50;;
29416;SDS011;28421;51.030;4.006;2022-07-03T14:32:57;2.50;;;0.77;;
29416;SDS011;28421;51.030;4.006;2022-07-03T14:35:22;0.65;;;0.50;;
29416;SDS011;28421;51.030;4.006;2022-07-03T14:37:48;1.25;;;0.30;;
29416;SDS011;28421;51.030;4.006;2022-07-03T14:40:14;1.35;;;0.43;;
29416;SDS011;28421;51.030;4.006;2022-07-03T14:42:40;2.83;;;0.77;;
29416;SDS011;28421;51.030;4.006;2022-07-03T14:45:09;3.47;;;0.75;;
29416;SDS011;28421;51.030;4.006;2022-07-03T14:47:35;2.00;;;0.60;;
29416;SDS011;28421;51.030;4.006;2022-07-03T14:50:01;1.50;;;1.00;;
29416;SDS011;28421;51.030;4.006;2022-07-03T14:52:27;0.55;;;0.55;;
29416;SDS011;28421;51.030;4.006;2022-07-03T14:54:54;0.77;;;0.47;;
29416;SDS011;28421;51.030;4.006;2022-07-03T15:03:18;6.85;;;1.33;;
29416;SDS011;28421;51.030;4.006;2022-07-03T15:05:27;2.22;;;0.60;;
29416;SDS011;28421;51.030;4.006;2022-07-03T15:10:30;1.55;;;0.43;;
29416;SDS011;28421;51.030;4.006;2022-07-03T15:13:00;1.60;;;0.47;;
29416;SDS011;28421;51.030;4.006;2022-07-03T15:15:27;2.47;;;0.52;;
29416;SDS011;28421;51.030;4.006;2022-07-03T15:17:55;3.20;;;0.60;;
29416;SDS011;28421;51.030;4.006;2022-07-03T15:20:23;1.02;;;0.55;;
29416;SDS011;28421;51.030;4.006;2022-07-03T15:22:55;0.50;;;0.38;;
29416;SDS011;28421;51.030;4.006;2022-07-03T15:25:22;1.08;;;0.50;;
29416;SDS011;28421;51.030;4.006;2022-07-03T15:27:52;6.20;;;0.55;;
29416;SDS011;28421;51.030;4.006;2022-07-03T15:30:19;0.77;;;0.47;;
29416;SDS011;28421;51.030;4.006;2022-07-03T15:32:45;4.20;;;0.50;;
29416;SDS011;28421;51.030;4.006;2022-07-03T15:35:15;3.17;;;0.60;;
29416;SDS011;28421;51.030;4.006;2022-07-03T15:40:23;0.73;;;0.40;;
29416;SDS011;28421;51.030;4.006;2022-07-03T15:53:38;0.38;;;0.30;;
29416;SDS011;28421;51.030;4.006;2022-07-03T15:56:06;1.38;;;0.25;;
29416;SDS011;28421;51.030;4.006;2022-07-03T15:58:34;2.22;;;0.68;;
29416;SDS011;28421;51.030;4.006;2022-07-03T16:01:02;3.58;;;0.63;;
29416;SDS011;28421;51.030;4.006;2022-07-03T16:06:29;2.03;;;0.63;;
29416;SDS011;28421;51.030;4.006;2022-07-03T16:08:56;2.13;;;0.40;;
29416;SDS011;28421;51.030;4.006;2022-07-03T16:11:23;1.35;;;0.40;;
29416;SDS011;28421;51.030;4.006;2022-07-03T16:13:50;2.20;;;0.40;;
29416;SDS011;28421;51.030;4.006;2022-07-03T16:16:20;2.85;;;0.20;;
29416;SDS011;28421;51.030;4.006;2022-07-03T16:18:49;2.45;;;0.45;;
29416;SDS011;28421;51.030;4.006;2022-07-03T16:21:16;2.78;;;0.70;;
29416;SDS011;28421;51.030;4.006;2022-07-03T16:23:44;0.68;;;0.30;;